Wetterdaten: Woche 19.08.19 - 25.08.19 (KW34)
Datum Zeit Temp. A. Temp. A. min Temp. A. max Feuchte A. Bod.Feucht 4 Luftdruck Regen Wind Richtung Sonnenschein ET Solar Taupunkt Windchill Windben Empfang
19.08.2019 00:00 16,1 C 16,1 C 16,2 C 95 % 0 cb 1012,8 hPa 0,0 l/m 0,0 km/h (0 Bft) N 0,00 h 0,000 mm 0 W/m 15,2 C 16,1 C 2,9 km/h (1 Bft) 100,00 %
19.08.2019 01:00 15,7 C 15,7 C 15,8 C 95 % 0 cb 1013,4 hPa 0,0 l/m 1,1 km/h (0 Bft) W 0,00 h 0,000 mm 0 W/m 14,9 C 15,7 C 5,6 km/h (1 Bft) 100,00 %
19.08.2019 02:00 15,3 C 15,3 C 15,3 C 95 % 0 cb 1014,0 hPa 0,0 l/m 0,5 km/h (0 Bft) W-SW 0,00 h 0,000 mm 0 W/m 14,5 C 15,3 C 3,2 km/h (1 Bft) 100,00 %
19.08.2019 03:00 14,9 C 14,9 C 15,0 C 95 % 0 cb 1014,3 hPa 0,0 l/m 0,5 km/h (0 Bft) NW 0,00 h 0,000 mm 0 W/m 14,2 C 14,9 C 3,5 km/h (1 Bft) 100,00 %
19.08.2019 04:00 14,7 C 14,7 C 14,8 C 96 % 0 cb 1014,9 hPa 0,0 l/m 0,0 km/h (0 Bft) N 0,00 h 0,000 mm 0 W/m 14,1 C 14,7 C 0,0 km/h (0 Bft) 100,00 %
19.08.2019 05:00 14,7 C 14,6 C 14,7 C 97 % 0 cb 1014,9 hPa 0,4 l/m 0,0 km/h (0 Bft) N 0,00 h 0,000 mm 0 W/m 14,1 C 14,7 C 0,0 km/h (0 Bft) 100,00 %
19.08.2019 06:00 14,8 C 14,8 C 14,8 C 97 % 0 cb 1015,0 hPa 0,0 l/m 0,0 km/h (0 Bft) N 0,00 h 0,000 mm 8 W/m 14,3 C 14,8 C 0,0 km/h (0 Bft) 100,00 %
19.08.2019 07:00 14,9 C 14,8 C 14,9 C 97 % 0 cb 1015,6 hPa 0,0 l/m 0,5 km/h (0 Bft) W 0,00 h 0,000 mm 75 W/m 14,4 C 14,9 C 1,1 km/h (0 Bft) 100,00 %
19.08.2019 08:00 15,6 C 15,4 C 15,6 C 97 % 0 cb 1016,2 hPa 0,0 l/m 1,1 km/h (0 Bft) W-NW 0,67 h 0,025 mm 283 W/m 15,1 C 15,6 C 5,3 km/h (1 Bft) 99,93 %
19.08.2019 09:00 17,1 C 16,8 C 17,1 C 90 % 0 cb 1016,4 hPa 0,0 l/m 2,4 km/h (1 Bft) W-NW 1,00 h 0,102 mm 493 W/m 15,3 C 17,1 C 7,2 km/h (2 Bft) 99,78 %
19.08.2019 10:00 18,9 C 18,6 C 18,9 C 77 % 0 cb 1016,6 hPa 0,0 l/m 3,2 km/h (1 Bft) W 1,00 h 0,229 mm 595 W/m 14,8 C 18,9 C 11,0 km/h (2 Bft) 100,00 %
19.08.2019 11:00 20,1 C 20,0 C 20,1 C 67 % 0 cb 1017,2 hPa 0,0 l/m 5,3 km/h (1 Bft) W 1,00 h 0,330 mm 764 W/m 13,7 C 20,1 C 16,4 km/h (3 Bft) 100,00 %
19.08.2019 12:00 20,9 C 20,6 C 20,9 C 61 % 0 cb 1017,4 hPa 0,0 l/m 5,9 km/h (2 Bft) W 1,00 h 0,432 mm 834 W/m 13,1 C 20,9 C 17,7 km/h (3 Bft) 99,78 %
19.08.2019 13:00 20,8 C 20,6 C 20,9 C 59 % 0 cb 1017,7 hPa 0,0 l/m 5,6 km/h (1 Bft) W 1,00 h 0,381 mm 774 W/m 12,4 C 20,8 C 16,9 km/h (3 Bft) 100,00 %
19.08.2019 14:00 22,1 C 21,8 C 22,1 C 54 % 0 cb 1017,6 hPa 0,0 l/m 5,9 km/h (2 Bft) W-SW 1,00 h 0,356 mm 898 W/m 12,2 C 22,1 C 19,0 km/h (3 Bft) 99,93 %
19.08.2019 15:00 22,3 C 22,2 C 22,5 C 50 % 0 cb 1017,8 hPa 0,0 l/m 4,8 km/h (1 Bft) W 1,00 h 0,432 mm 725 W/m 11,4 C 22,3 C 15,3 km/h (3 Bft) 100,00 %
19.08.2019 16:00 22,2 C 22,1 C 22,4 C 53 % 0 cb 1017,8 hPa 0,0 l/m 4,3 km/h (1 Bft) W 1,00 h 0,356 mm 526 W/m 12,1 C 22,2 C 15,0 km/h (3 Bft) 100,00 %
19.08.2019 17:00 22,5 C 22,3 C 22,7 C 53 % 0 cb 1018,0 hPa 0,0 l/m 5,1 km/h (1 Bft) W 0,83 h 0,279 mm 454 W/m 12,4 C 22,5 C 16,9 km/h (3 Bft) 100,00 %
19.08.2019 18:00 22,2 C 22,1 C 22,4 C 53 % 0 cb 1018,1 hPa 0,0 l/m 4,5 km/h (1 Bft) W 0,83 h 0,254 mm 277 W/m 12,2 C 22,2 C 13,4 km/h (3 Bft) 100,00 %
19.08.2019 19:00 20,6 C 20,6 C 20,9 C 58 % 0 cb 1018,2 hPa 0,0 l/m 3,7 km/h (1 Bft) NW 0,33 h 0,152 mm 118 W/m 11,9 C 20,6 C 9,7 km/h (2 Bft) 99,78 %
19.08.2019 20:00 18,8 C 18,8 C 19,1 C 62 % 0 cb 1018,5 hPa 0,0 l/m 2,4 km/h (1 Bft) NW 0,00 h 0,076 mm 14 W/m 11,4 C 18,8 C 8,1 km/h (2 Bft) 100,00 %
19.08.2019 21:00 17,4 C 17,4 C 17,6 C 66 % 0 cb 1019,3 hPa 0,0 l/m 4,3 km/h (1 Bft) NW 0,00 h 0,025 mm 0 W/m 11,0 C 17,4 C 11,0 km/h (2 Bft) 100,00 %
19.08.2019 22:00 16,5 C 16,5 C 16,8 C 68 % 0 cb 1019,8 hPa 0,0 l/m 2,4 km/h (1 Bft) NO 0,00 h 0,051 mm 0 W/m 10,7 C 16,5 C 8,8 km/h (2 Bft) 100,00 %
19.08.2019 23:00 14,2 C 14,2 C 14,5 C 80 % 0 cb 1020,4 hPa 0,0 l/m 0,3 km/h (0 Bft) NO 0,00 h 0,025 mm 0 W/m 10,8 C 14,2 C 1,1 km/h (0 Bft) 99,85 %
20.08.2019 00:00 12,9 C 12,9 C 13,1 C 85 % 0 cb 1020,9 hPa 0,0 l/m 0,0 km/h (0 Bft) N 0,00 h 0,025 mm 0 W/m 10,4 C 12,9 C 0,8 km/h (0 Bft) 100,00 %
20.08.2019 01:00 11,8 C 11,8 C 12,0 C 88 % 0 cb 1021,1 hPa 0,0 l/m 0,0 km/h (0 Bft) N 0,00 h 0,000 mm 0 W/m 9,9 C 11,8 C 0,0 km/h (0 Bft) 99,93 %
20.08.2019 02:00 11,0 C 11,0 C 11,2 C 90 % 0 cb 1020,9 hPa 0,0 l/m 0,0 km/h (0 Bft) N 0,00 h 0,000 mm 0 W/m 9,4 C 11,0 C 1,9 km/h (1 Bft) 100,00 %
20.08.2019 03:00 10,4 C 10,4 C 10,6 C 91 % 0 cb 1021,1 hPa 0,0 l/m 0,0 km/h (0 Bft) N 0,00 h 0,000 mm 0 W/m 9,0 C 10,4 C 0,5 km/h (0 Bft) 99,93 %
20.08.2019 04:00 10,2 C 10,1 C 10,2 C 92 % 0 cb 1021,1 hPa 0,0 l/m 0,0 km/h (0 Bft) N 0,00 h 0,000 mm 0 W/m 9,0 C 10,2 C 2,1 km/h (1 Bft) 99,78 %
20.08.2019 05:00 9,7 C 9,7 C 9,8 C 93 % 0 cb 1021,2 hPa 0,0 l/m 0,0 km/h (0 Bft) N 0,00 h 0,000 mm 0 W/m 8,6 C 9,7 C 0,0 km/h (0 Bft) 100,00 %
20.08.2019 06:00 9,5 C 9,4 C 9,5 C 94 % 0 cb 1021,5 hPa 0,0 l/m 0,0 km/h (0 Bft) N 0,00 h 0,000 mm 13 W/m 8,5 C 9,5 C 0,0 km/h (0 Bft) 99,93 %
20.08.2019 07:00 9,9 C 9,8 C 9,9 C 95 % 0 cb 1021,7 hPa 0,0 l/m 0,0 km/h (0 Bft) N 0,00 h 0,000 mm 56 W/m 9,0 C 9,9 C 0,0 km/h (0 Bft) 100,00 %
20.08.2019 08:00 11,1 C 10,8 C 11,1 C 94 % 0 cb 1022,4 hPa 0,0 l/m 0,5 km/h (0 Bft) O-NO 0,50 h 0,025 mm 146 W/m 10,2 C 11,1 C 1,9 km/h (1 Bft) 100,00 %
20.08.2019 09:00 13,0 C 12,6 C 13,0 C 90 % 0 cb 1022,5 hPa 0,0 l/m 0,3 km/h (0 Bft) N 1,00 h 0,076 mm 170 W/m 11,4 C 13,0 C 1,9 km/h (1 Bft) 100,00 %
20.08.2019 10:00 15,4 C 15,1 C 15,4 C 82 % 0 cb 1022,7 hPa 0,0 l/m 0,0 km/h (0 Bft) N 1,00 h 0,076 mm 271 W/m 12,3 C 15,4 C 1,6 km/h (1 Bft) 100,00 %
20.08.2019 11:00 17,4 C 17,1 C 17,4 C 76 % 0 cb 1023,3 hPa 0,0 l/m 0,5 km/h (0 Bft) O-NO 1,00 h 0,152 mm 297 W/m 13,2 C 17,4 C 3,5 km/h (1 Bft) 100,00 %
20.08.2019 12:00 18,7 C 18,5 C 18,7 C 69 % 0 cb 1023,4 hPa 0,0 l/m 0,5 km/h (0 Bft) O-NO 1,00 h 0,178 mm 352 W/m 12,9 C 18,7 C 3,2 km/h (1 Bft) 100,00 %
20.08.2019 13:00 19,6 C 19,4 C 19,6 C 64 % 0 cb 1023,2 hPa 0,0 l/m 1,6 km/h (1 Bft) O-SO 1,00 h 0,203 mm 438 W/m 12,5 C 19,6 C 6,2 km/h (2 Bft) 100,00 %
20.08.2019 14:00 20,1 C 20,0 C 20,1 C 56 % 0 cb 1023,2 hPa 0,0 l/m 1,9 km/h (1 Bft) SO 1,00 h 0,254 mm 396 W/m 11,1 C 20,1 C 6,9 km/h (2 Bft) 100,00 %
20.08.2019 15:00 20,1 C 20,1 C 20,2 C 53 % 0 cb 1023,5 hPa 0,0 l/m 2,4 km/h (1 Bft) S-SW 1,00 h 0,229 mm 340 W/m 10,3 C 20,1 C 9,1 km/h (2 Bft) 99,93 %
20.08.2019 16:00 19,5 C 19,5 C 19,7 C 54 % 0 cb 1024,2 hPa 0,0 l/m 3,7 km/h (1 Bft) W-NW 1,00 h 0,203 mm 230 W/m 10,0 C 19,5 C 10,5 km/h (2 Bft) 99,64 %
20.08.2019 17:00 19,2 C 19,2 C 19,3 C 57 % 0 cb 1024,2 hPa 0,0 l/m 3,2 km/h (1 Bft) W 1,00 h 0,152 mm 208 W/m 10,3 C 19,2 C 8,9 km/h (2 Bft) 100,00 %
20.08.2019 18:00 18,5 C 18,5 C 18,6 C 62 % 0 cb 1024,6 hPa 0,0 l/m 2,4 km/h (1 Bft) W 0,17 h 0,127 mm 107 W/m 11,1 C 18,5 C 7,8 km/h (2 Bft) 99,71 %
20.08.2019 19:00 17,7 C 17,7 C 17,8 C 68 % 0 cb 1025,0 hPa 0,0 l/m 0,0 km/h (0 Bft) N 0,00 h 0,076 mm 55 W/m 11,8 C 17,7 C 1,3 km/h (1 Bft) 100,00 %
20.08.2019 20:00 17,0 C 17,0 C 17,1 C 74 % 0 cb 1025,5 hPa 0,0 l/m 0,0 km/h (0 Bft) N 0,00 h 0,025 mm 24 W/m 12,3 C 17,0 C 0,0 km/h (0 Bft) 99,93 %
20.08.2019 21:00 16,1 C 16,0 C 16,2 C 76 % 0 cb 1026,1 hPa 0,0 l/m 0,8 km/h (0 Bft) N-NW 0,00 h 0,000 mm 0 W/m 11,8 C 16,1 C 3,7 km/h (1 Bft) 100,00 %
20.08.2019 22:00 15,1 C 15,1 C 15,4 C 81 % 0 cb 1026,5 hPa 0,0 l/m 0,0 km/h (0 Bft) N 0,00 h 0,025 mm 0 W/m 11,8 C 15,1 C 0,0 km/h (0 Bft) 99,78 %
20.08.2019 23:00 13,2 C 13,2 C 13,4 C 86 % 0 cb 1026,9 hPa 0,0 l/m 0,0 km/h (0 Bft) N 0,00 h 0,025 mm 0 W/m 10,9 C 13,2 C 0,0 km/h (0 Bft) 100,00 %
21.08.2019 00:00 11,9 C 11,9 C 12,1 C 90 % 0 cb 1027,1 hPa 0,0 l/m 0,0 km/h (0 Bft) N 0,00 h 0,000 mm 0 W/m 10,3 C 11,9 C 0,0 km/h (0 Bft) 99,85 %
21.08.2019 01:00 11,6 C 11,5 C 11,6 C 92 % 0 cb 1027,2 hPa 0,0 l/m 0,0 km/h (0 Bft) N 0,00 h 0,000 mm 0 W/m 10,3 C 11,6 C 0,0 km/h (0 Bft) 100,00 %
21.08.2019 02:00 10,7 C 10,7 C 10,9 C 92 % 0 cb 1027,3 hPa 0,0 l/m 0,0 km/h (0 Bft) N 0,00 h 0,000 mm 0 W/m 9,4 C 10,7 C 0,0 km/h (0 Bft) 99,93 %
21.08.2019 03:00 9,9 C 9,9 C 10,0 C 93 % 0 cb 1027,5 hPa 0,0 l/m 0,0 km/h (0 Bft) N 0,00 h 0,000 mm 0 W/m 8,8 C 9,9 C 0,0 km/h (0 Bft) 100,00 %
21.08.2019 04:00 9,3 C 9,3 C 9,4 C 94 % 0 cb 1027,6 hPa 0,0 l/m 0,0 km/h (0 Bft) N 0,00 h 0,000 mm 0 W/m 8,5 C 9,3 C 0,0 km/h (0 Bft) 99,93 %
21.08.2019 05:00 9,2 C 9,1 C 9,3 C 95 % 0 cb 1027,8 hPa 0,0 l/m 0,3 km/h (0 Bft) N 0,00 h 0,000 mm 0 W/m 8,5 C 9,2 C 1,1 km/h (0 Bft) 99,85 %
21.08.2019 06:00 9,3 C 9,2 C 9,4 C 95 % 0 cb 1028,1 hPa 0,0 l/m 0,8 km/h (0 Bft) N 0,00 h 0,000 mm 12 W/m 8,4 C 9,3 C 3,2 km/h (1 Bft) 99,71 %
21.08.2019 07:00 8,7 C 8,6 C 8,8 C 95 % 0 cb 1028,4 hPa 0,0 l/m 0,0 km/h (0 Bft) N 0,00 h 0,000 mm 49 W/m 8,0 C 8,7 C 0,5 km/h (0 Bft) 99,85 %
21.08.2019 08:00 11,4 C 10,8 C 11,4 C 96 % 0 cb 1028,5 hPa 0,0 l/m 0,0 km/h (0 Bft) N 1,00 h 0,025 mm 249 W/m 10,8 C 11,4 C 0,3 km/h (0 Bft) 99,93 %
21.08.2019 09:00 16,1 C 15,3 C 16,1 C 81 % 0 cb 1028,5 hPa 0,0 l/m 1,1 km/h (0 Bft) N 1,00 h 0,127 mm 429 W/m 12,8 C 16,1 C 5,1 km/h (1 Bft) 98,10 %
21.08.2019 10:00 19,1 C 18,6 C 19,1 C 68 % 0 cb 1028,4 hPa 0,0 l/m 2,4 km/h (1 Bft) NO 1,00 h 0,229 mm 578 W/m 13,1 C 19,1 C 8,3 km/h (2 Bft) 99,85 %
21.08.2019 11:00 20,9 C 20,7 C 21,0 C 57 % 0 cb 1028,3 hPa 0,0 l/m 2,1 km/h (1 Bft) O-SO 1,00 h 0,330 mm 757 W/m 12,1 C 20,9 C 8,3 km/h (2 Bft) 100,00 %
21.08.2019 12:00 21,5 C 21,2 C 21,6 C 51 % 0 cb 1028,0 hPa 0,0 l/m 3,2 km/h (1 Bft) O-SO 1,00 h 0,356 mm 831 W/m 10,9 C 21,5 C 9,4 km/h (2 Bft) 100,00 %
21.08.2019 13:00 22,5 C 22,3 C 22,5 C 47 % 0 cb 1027,6 hPa 0,0 l/m 4,5 km/h (1 Bft) S 1,00 h 0,457 mm 829 W/m 10,6 C 22,5 C 13,7 km/h (3 Bft) 100,00 %
21.08.2019 14:00 22,9 C 22,8 C 22,9 C 45 % 0 cb 1027,0 hPa 0,0 l/m 3,7 km/h (1 Bft) S-SO 1,00 h 0,533 mm 795 W/m 10,4 C 22,9 C 12,1 km/h (2 Bft) 100,00 %
21.08.2019 15:00 23,5 C 23,3 C 23,5 C 42 % 0 cb 1026,5 hPa 0,0 l/m 3,2 km/h (1 Bft) O 1,00 h 0,508 mm 729 W/m 9,7 C 23,5 C 11,3 km/h (2 Bft) 99,85 %
21.08.2019 16:00 23,7 C 23,6 C 23,8 C 41 % 0 cb 1026,1 hPa 0,0 l/m 4,5 km/h (1 Bft) O-SO 1,00 h 0,457 mm 592 W/m 9,8 C 23,7 C 13,4 km/h (3 Bft) 100,00 %
21.08.2019 17:00 23,3 C 23,2 C 23,4 C 44 % 0 cb 1026,0 hPa 0,0 l/m 3,2 km/h (1 Bft) O-SO 1,00 h 0,381 mm 394 W/m 10,4 C 23,3 C 10,5 km/h (2 Bft) 100,00 %
21.08.2019 18:00 23,0 C 23,0 C 23,2 C 45 % 0 cb 1026,0 hPa 0,0 l/m 3,7 km/h (1 Bft) O-NO 0,83 h 0,254 mm 246 W/m 10,6 C 23,0 C 13,2 km/h (3 Bft) 99,78 %
21.08.2019 19:00 21,5 C 21,5 C 21,8 C 49 % 0 cb 1025,8 hPa 0,0 l/m 2,7 km/h (1 Bft) O 0,00 h 0,152 mm 116 W/m 10,3 C 21,5 C 11,0 km/h (2 Bft) 100,00 %
21.08.2019 20:00 19,4 C 19,4 C 19,8 C 54 % 0 cb 1025,8 hPa 0,0 l/m 1,1 km/h (0 Bft) NO 0,00 h 0,076 mm 20 W/m 9,9 C 19,4 C 5,6 km/h (1 Bft) 100,00 %
21.08.2019 21:00 17,1 C 17,1 C 17,4 C 60 % 0 cb 1026,3 hPa 0,0 l/m 0,5 km/h (0 Bft) NO 0,00 h 0,025 mm 0 W/m 9,3 C 17,1 C 3,7 km/h (1 Bft) 100,00 %
21.08.2019 22:00 16,2 C 16,2 C 16,3 C 64 % 0 cb 1026,3 hPa 0,0 l/m 2,7 km/h (1 Bft) O-NO 0,00 h 0,025 mm 0 W/m 9,4 C 16,2 C 5,6 km/h (1 Bft) 100,00 %
21.08.2019 23:00 15,7 C 15,7 C 15,8 C 67 % 0 cb 1026,3 hPa 0,0 l/m 3,7 km/h (1 Bft) NO 0,00 h 0,051 mm 0 W/m 9,7 C 15,7 C 7,2 km/h (2 Bft) 100,00 %
22.08.2019 00:00 15,2 C 15,2 C 15,3 C 71 % 0 cb 1026,0 hPa 0,0 l/m 4,3 km/h (1 Bft) N-NO 0,00 h 0,051 mm 0 W/m 9,9 C 15,2 C 8,0 km/h (2 Bft) 100,00 %
22.08.2019 01:00 14,7 C 14,7 C 14,8 C 71 % 0 cb 1026,0 hPa 0,0 l/m 4,3 km/h (1 Bft) N-NO 0,00 h 0,025 mm 0 W/m 9,5 C 14,7 C 8,9 km/h (2 Bft) 99,85 %
22.08.2019 02:00 14,2 C 14,2 C 14,3 C 70 % 0 cb 1025,9 hPa 0,0 l/m 4,3 km/h (1 Bft) N-NO 0,00 h 0,025 mm 0 W/m 8,9 C 14,2 C 8,0 km/h (2 Bft) 99,85 %
22.08.2019 03:00 13,4 C 13,4 C 13,5 C 74 % 0 cb 1025,5 hPa 0,0 l/m 6,1 km/h (2 Bft) N-NO 0,00 h 0,025 mm 0 W/m 8,9 C 13,4 C 11,6 km/h (2 Bft) 100,00 %
22.08.2019 04:00 12,7 C 12,7 C 12,8 C 77 % 0 cb 1025,4 hPa 0,0 l/m 4,5 km/h (1 Bft) N-NO 0,00 h 0,025 mm 0 W/m 8,7 C 12,7 C 10,5 km/h (2 Bft) 99,93 %
22.08.2019 05:00 12,4 C 12,4 C 12,5 C 76 % 0 cb 1025,2 hPa 0,0 l/m 4,3 km/h (1 Bft) N-NO 0,00 h 0,025 mm 0 W/m 8,4 C 12,4 C 10,2 km/h (2 Bft) 100,00 %
22.08.2019 06:00 12,5 C 12,4 C 12,6 C 76 % 0 cb 1025,3 hPa 0,0 l/m 4,5 km/h (1 Bft) N-NO 0,00 h 0,025 mm 10 W/m 8,4 C 12,5 C 11,6 km/h (2 Bft) 100,00 %
22.08.2019 07:00 12,7 C 12,6 C 12,8 C 77 % 0 cb 1025,5 hPa 0,0 l/m 5,9 km/h (2 Bft) N-NO 0,00 h 0,025 mm 37 W/m 8,7 C 12,7 C 14,0 km/h (3 Bft) 100,00 %
22.08.2019 08:00 14,5 C 14,0 C 14,5 C 73 % 0 cb 1025,7 hPa 0,0 l/m 5,6 km/h (1 Bft) N-NO 1,00 h 0,051 mm 251 W/m 9,6 C 14,5 C 13,4 km/h (3 Bft) 100,00 %
22.08.2019 09:00 16,9 C 16,5 C 16,9 C 68 % 0 cb 1026,0 hPa 0,0 l/m 4,5 km/h (1 Bft) N-NO 1,00 h 0,152 mm 421 W/m 10,9 C 16,9 C 12,4 km/h (3 Bft) 99,93 %
22.08.2019 10:00 19,8 C 19,3 C 19,8 C 62 % 0 cb 1026,0 hPa 0,0 l/m 4,0 km/h (1 Bft) O 1,00 h 0,254 mm 571 W/m 12,3 C 19,8 C 13,2 km/h (3 Bft) 100,00 %
22.08.2019 11:00 21,6 C 21,4 C 21,6 C 57 % 0 cb 1025,8 hPa 0,0 l/m 5,6 km/h (1 Bft) O 1,00 h 0,356 mm 690 W/m 12,7 C 21,6 C 15,3 km/h (3 Bft) 100,00 %
22.08.2019 12:00 22,6 C 22,4 C 22,6 C 54 % 0 cb 1025,6 hPa 0,0 l/m 4,3 km/h (1 Bft) O-SO 1,00 h 0,432 mm 762 W/m 12,7 C 22,6 C 14,5 km/h (3 Bft) 100,00 %
22.08.2019 13:00 23,1 C 23,0 C 23,1 C 50 % 0 cb 1025,2 hPa 0,0 l/m 5,1 km/h (1 Bft) O-NO 1,00 h 0,483 mm 791 W/m 12,0 C 23,1 C 15,0 km/h (3 Bft) 99,93 %
22.08.2019 14:00 23,9 C 23,7 C 23,9 C 50 % 0 cb 1024,9 hPa 0,0 l/m 4,0 km/h (1 Bft) O 1,00 h 0,508 mm 769 W/m 12,7 C 23,9 C 14,0 km/h (3 Bft) 100,00 %
22.08.2019 15:00 24,4 C 24,3 C 24,5 C 48 % 0 cb 1024,6 hPa 0,0 l/m 3,5 km/h (1 Bft) N-NO 1,00 h 0,508 mm 699 W/m 12,5 C 24,4 C 12,1 km/h (2 Bft) 100,00 %
22.08.2019 16:00 25,6 C 25,4 C 25,6 C 44 % 0 cb 1024,3 hPa 0,0 l/m 2,9 km/h (1 Bft) O 1,00 h 0,457 mm 590 W/m 12,4 C 25,6 C 11,3 km/h (2 Bft) 99,78 %
22.08.2019 17:00 25,4 C 25,3 C 25,5 C 43 % 0 cb 1024,0 hPa 0,0 l/m 2,4 km/h (1 Bft) O 1,00 h 0,381 mm 378 W/m 11,9 C 25,4 C 9,1 km/h (2 Bft) 100,00 %
22.08.2019 18:00 24,3 C 24,3 C 24,5 C 45 % 0 cb 1024,0 hPa 0,0 l/m 2,1 km/h (1 Bft) O-SO 0,67 h 0,229 mm 163 W/m 11,7 C 24,3 C 6,7 km/h (2 Bft) 100,00 %
22.08.2019 19:00 23,0 C 23,0 C 23,2 C 51 % 0 cb 1024,0 hPa 0,0 l/m 1,1 km/h (0 Bft) O-SO 0,00 h 0,102 mm 100 W/m 12,1 C 23,0 C 4,0 km/h (1 Bft) 100,00 %
22.08.2019 20:00 20,7 C 20,7 C 21,1 C 56 % 0 cb 1024,3 hPa 0,0 l/m 0,0 km/h (0 Bft) N 0,00 h 0,076 mm 18 W/m 11,6 C 20,7 C 1,3 km/h (1 Bft) 100,00 %
22.08.2019 21:00 18,6 C 18,6 C 18,9 C 60 % 0 cb 1024,9 hPa 0,0 l/m 1,3 km/h (1 Bft) O-SO 0,00 h 0,025 mm 0 W/m 10,8 C 18,6 C 4,5 km/h (1 Bft) 100,00 %
22.08.2019 22:00 17,8 C 17,8 C 17,9 C 62 % 0 cb 1025,2 hPa 0,0 l/m 1,6 km/h (1 Bft) O-SO 0,00 h 0,051 mm 0 W/m 10,3 C 17,8 C 4,5 km/h (1 Bft) 99,78 %
22.08.2019 23:00 16,8 C 16,8 C 16,9 C 65 % 0 cb 1025,3 hPa 0,0 l/m 1,6 km/h (1 Bft) O-SO 0,00 h 0,051 mm 0 W/m 10,2 C 16,8 C 4,5 km/h (1 Bft) 99,93 %
23.08.2019 00:00 15,6 C 15,6 C 15,9 C 70 % 0 cb 1025,3 hPa 0,0 l/m 0,3 km/h (0 Bft) O-SO 0,00 h 0,025 mm 0 W/m 10,0 C 15,6 C 0,5 km/h (0 Bft) 100,00 %
23.08.2019 01:00 14,0 C 14,0 C 14,2 C 76 % 0 cb 1025,3 hPa 0,0 l/m 0,0 km/h (0 Bft) N 0,00 h 0,025 mm 0 W/m 9,8 C 14,0 C 1,6 km/h (1 Bft) 99,78 %
23.08.2019 02:00 13,7 C 13,5 C 13,8 C 75 % 0 cb 1025,1 hPa 0,0 l/m 1,3 km/h (1 Bft) O-SO 0,00 h 0,025 mm 0 W/m 9,4 C 13,7 C 4,0 km/h (1 Bft) 100,00 %
23.08.2019 03:00 13,9 C 13,8 C 14,2 C 75 % 0 cb 1024,9 hPa 0,0 l/m 0,3 km/h (0 Bft) O 0,00 h 0,025 mm 0 W/m 9,5 C 13,9 C 4,0 km/h (1 Bft) 99,93 %
23.08.2019 04:00 13,5 C 13,4 C 13,7 C 76 % 0 cb 1024,9 hPa 0,0 l/m 1,1 km/h (0 Bft) O 0,00 h 0,025 mm 0 W/m 9,3 C 13,5 C 5,6 km/h (1 Bft) 99,93 %
23.08.2019 05:00 12,7 C 12,6 C 12,8 C 79 % 0 cb 1024,9 hPa 0,0 l/m 0,5 km/h (0 Bft) O-NO 0,00 h 0,025 mm 0 W/m 9,0 C 12,7 C 2,4 km/h (1 Bft) 100,00 %
23.08.2019 06:00 14,1 C 13,8 C 14,1 C 73 % 0 cb 1025,0 hPa 0,0 l/m 3,7 km/h (1 Bft) N-NO 0,00 h 0,025 mm 10 W/m 9,3 C 14,1 C 9,1 km/h (2 Bft) 100,00 %
23.08.2019 07:00 14,9 C 14,6 C 14,9 C 71 % 0 cb 1025,1 hPa 0,0 l/m 3,7 km/h (1 Bft) N-NO 0,00 h 0,025 mm 32 W/m 9,5 C 14,9 C 9,9 km/h (2 Bft) 100,00 %
23.08.2019 08:00 16,9 C 16,5 C 16,9 C 66 % 0 cb 1025,2 hPa 0,0 l/m 5,6 km/h (1 Bft) N-NO 1,00 h 0,051 mm 247 W/m 10,5 C 16,9 C 12,9 km/h (3 Bft) 100,00 %
23.08.2019 09:00 19,3 C 18,8 C 19,3 C 63 % 0 cb 1025,4 hPa 0,0 l/m 3,2 km/h (1 Bft) NO 1,00 h 0,152 mm 416 W/m 12,1 C 19,3 C 7,5 km/h (2 Bft) 99,93 %
23.08.2019 10:00 22,6 C 22,0 C 22,6 C 58 % 0 cb 1025,4 hPa 0,0 l/m 3,2 km/h (1 Bft) NO 1,00 h 0,254 mm 568 W/m 13,8 C 22,6 C 9,1 km/h (2 Bft) 100,00 %
23.08.2019 11:00 24,0 C 23,9 C 24,0 C 50 % 0 cb 1025,1 hPa 0,0 l/m 5,6 km/h (1 Bft) O 1,00 h 0,381 mm 687 W/m 12,7 C 24,0 C 19,0 km/h (3 Bft) 100,00 %
23.08.2019 12:00 24,7 C 24,5 C 24,7 C 48 % 0 cb 1024,6 hPa 0,0 l/m 5,6 km/h (1 Bft) O-NO 1,00 h 0,483 mm 754 W/m 12,9 C 24,7 C 16,4 km/h (3 Bft) 99,78 %
23.08.2019 13:00 25,3 C 25,2 C 25,3 C 45 % 0 cb 1024,0 hPa 0,0 l/m 5,3 km/h (1 Bft) O-NO 1,00 h 0,508 mm 779 W/m 12,5 C 25,3 C 17,2 km/h (3 Bft) 100,00 %
23.08.2019 14:00 25,9 C 25,8 C 25,9 C 41 % 0 cb 1023,6 hPa 0,0 l/m 6,9 km/h (2 Bft) O-NO 1,00 h 0,533 mm 761 W/m 11,5 C 25,9 C 19,3 km/h (3 Bft) 99,93 %
23.08.2019 15:00 26,5 C 26,4 C 26,5 C 38 % 0 cb 1023,2 hPa 0,0 l/m 6,4 km/h (2 Bft) O 1,00 h 0,559 mm 702 W/m 11,1 C 26,5 C 17,4 km/h (3 Bft) 100,00 %
23.08.2019 16:00 27,1 C 26,9 C 27,1 C 38 % 0 cb 1022,7 hPa 0,0 l/m 5,3 km/h (1 Bft) O 1,00 h 0,508 mm 587 W/m 11,5 C 27,1 C 16,1 km/h (3 Bft) 99,56 %
23.08.2019 17:00 27,2 C 27,1 C 27,2 C 38 % 0 cb 1022,3 hPa 0,0 l/m 5,6 km/h (1 Bft) O 1,00 h 0,432 mm 446 W/m 11,5 C 27,2 C 16,1 km/h (3 Bft) 100,00 %
23.08.2019 18:00 26,8 C 26,8 C 27,0 C 39 % 0 cb 1022,1 hPa 0,0 l/m 5,3 km/h (1 Bft) O 0,67 h 0,330 mm 206 W/m 11,5 C 26,8 C 16,4 km/h (3 Bft) 100,00 %
23.08.2019 19:00 25,3 C 25,3 C 25,6 C 41 % 0 cb 1021,8 hPa 0,0 l/m 3,2 km/h (1 Bft) O-NO 0,00 h 0,178 mm 86 W/m 11,0 C 25,3 C 11,3 km/h (2 Bft) 100,00 %
23.08.2019 20:00 22,9 C 22,9 C 23,4 C 46 % 0 cb 1022,0 hPa 0,0 l/m 1,6 km/h (1 Bft) NO 0,00 h 0,076 mm 11 W/m 10,6 C 22,9 C 6,4 km/h (2 Bft) 100,00 %
23.08.2019 21:00 20,4 C 20,4 C 20,6 C 52 % 0 cb 1022,1 hPa 0,0 l/m 2,1 km/h (1 Bft) N-NO 0,00 h 0,025 mm 0 W/m 10,3 C 20,4 C 6,4 km/h (2 Bft) 100,00 %
23.08.2019 22:00 19,7 C 19,7 C 19,8 C 55 % 0 cb 1022,0 hPa 0,0 l/m 3,7 km/h (1 Bft) N-NO 0,00 h 0,051 mm 0 W/m 10,3 C 19,7 C 8,6 km/h (2 Bft) 99,85 %
23.08.2019 23:00 18,1 C 17,9 C 18,4 C 61 % 0 cb 1022,0 hPa 0,0 l/m 3,7 km/h (1 Bft) NO 0,00 h 0,051 mm 0 W/m 10,5 C 18,1 C 8,6 km/h (2 Bft) 99,93 %
24.08.2019 00:00 18,6 C 18,5 C 18,6 C 59 % 0 cb 1021,6 hPa 0,0 l/m 4,5 km/h (1 Bft) N-NO 0,00 h 0,051 mm 0 W/m 10,4 C 18,6 C 9,4 km/h (2 Bft) 99,85 %
24.08.2019 01:00 17,8 C 17,8 C 18,0 C 62 % 0 cb 1021,4 hPa 0,0 l/m 4,3 km/h (1 Bft) N-NO 0,00 h 0,051 mm 0 W/m 10,3 C 17,8 C 9,7 km/h (2 Bft) 100,00 %
24.08.2019 02:00 16,2 C 16,1 C 16,5 C 68 % 0 cb 1021,2 hPa 0,0 l/m 0,8 km/h (0 Bft) N-NO 0,00 h 0,051 mm 0 W/m 10,2 C 16,2 C 5,1 km/h (1 Bft) 100,00 %
24.08.2019 03:00 16,6 C 16,5 C 16,7 C 65 % 0 cb 1021,0 hPa 0,0 l/m 4,0 km/h (1 Bft) N-NO 0,00 h 0,025 mm 0 W/m 10,0 C 16,6 C 9,9 km/h (2 Bft) 100,00 %
24.08.2019 04:00 16,1 C 16,1 C 16,2 C 67 % 0 cb 1020,8 hPa 0,0 l/m 4,3 km/h (1 Bft) N-NO 0,00 h 0,051 mm 0 W/m 9,9 C 16,1 C 10,8 km/h (2 Bft) 99,93 %
24.08.2019 05:00 15,8 C 15,8 C 16,0 C 68 % 0 cb 1020,7 hPa 0,0 l/m 2,7 km/h (1 Bft) N-NO 0,00 h 0,051 mm 0 W/m 9,8 C 15,8 C 7,8 km/h (2 Bft) 99,78 %
24.08.2019 06:00 14,5 C 14,4 C 14,8 C 73 % 0 cb 1020,8 hPa 0,0 l/m 1,9 km/h (1 Bft) N-NO 0,00 h 0,025 mm 10 W/m 9,7 C 14,5 C 7,5 km/h (2 Bft) 100,00 %
24.08.2019 07:00 15,3 C 15,2 C 15,3 C 71 % 0 cb 1020,9 hPa 0,0 l/m 4,8 km/h (1 Bft) N-NO 0,00 h 0,025 mm 38 W/m 10,2 C 15,3 C 11,5 km/h (2 Bft) 99,64 %
24.08.2019 08:00 17,5 C 17,0 C 17,5 C 68 % 0 cb 1020,8 hPa 0,0 l/m 5,6 km/h (1 Bft) N-NO 0,83 h 0,051 mm 240 W/m 11,5 C 17,5 C 11,0 km/h (2 Bft) 100,00 %
24.08.2019 09:00 20,1 C 19,7 C 20,1 C 63 % 0 cb 1021,0 hPa 0,0 l/m 4,8 km/h (1 Bft) N-NO 1,00 h 0,152 mm 411 W/m 12,8 C 20,1 C 11,3 km/h (2 Bft) 100,00 %
24.08.2019 10:00 22,2 C 21,7 C 22,2 C 60 % 0 cb 1021,0 hPa 0,0 l/m 4,3 km/h (1 Bft) N-NO 1,00 h 0,254 mm 557 W/m 14,2 C 22,2 C 10,8 km/h (2 Bft) 100,00 %
24.08.2019 11:00 25,1 C 24,8 C 25,1 C 54 % 0 cb 1020,8 hPa 0,0 l/m 4,8 km/h (1 Bft) O-SO 1,00 h 0,356 mm 671 W/m 15,2 C 25,1 C 14,2 km/h (3 Bft) 100,00 %
24.08.2019 12:00 25,9 C 25,7 C 25,9 C 52 % 0 cb 1020,4 hPa 0,0 l/m 4,3 km/h (1 Bft) O 1,00 h 0,457 mm 749 W/m 15,1 C 25,9 C 12,9 km/h (3 Bft) 100,00 %
24.08.2019 13:00 26,4 C 26,2 C 26,4 C 50 % 0 cb 1019,9 hPa 0,0 l/m 5,1 km/h (1 Bft) O-NO 1,00 h 0,508 mm 774 W/m 15,2 C 26,4 C 16,1 km/h (3 Bft) 99,85 %
24.08.2019 14:00 27,2 C 27,0 C 27,3 C 46 % 0 cb 1019,5 hPa 0,0 l/m 4,5 km/h (1 Bft) SO 1,00 h 0,533 mm 757 W/m 14,5 C 27,2 C 15,3 km/h (3 Bft) 100,00 %
24.08.2019 15:00 28,1 C 27,9 C 28,1 C 43 % 0 cb 1019,0 hPa 0,0 l/m 4,0 km/h (1 Bft) O 1,00 h 0,533 mm 692 W/m 14,4 C 28,1 C 12,6 km/h (3 Bft) 100,00 %
24.08.2019 16:00 28,6 C 28,5 C 28,7 C 40 % 0 cb 1018,7 hPa 0,0 l/m 5,1 km/h (1 Bft) O 1,00 h 0,483 mm 585 W/m 13,5 C 28,6 C 14,8 km/h (3 Bft) 100,00 %
24.08.2019 17:00 28,8 C 28,7 C 28,8 C 40 % 0 cb 1018,4 hPa 0,0 l/m 3,7 km/h (1 Bft) O 1,00 h 0,432 mm 440 W/m 13,6 C 28,8 C 13,9 km/h (3 Bft) 99,93 %
24.08.2019 18:00 28,6 C 28,6 C 28,8 C 40 % 0 cb 1018,1 hPa 0,0 l/m 2,9 km/h (1 Bft) O-NO 0,67 h 0,330 mm 202 W/m 13,8 C 28,6 C 11,3 km/h (2 Bft) 99,93 %
24.08.2019 19:00 27,0 C 27,0 C 27,3 C 44 % 0 cb 1018,0 hPa 0,0 l/m 1,6 km/h (1 Bft) O-NO 0,00 h 0,152 mm 81 W/m 13,5 C 27,0 C 6,4 km/h (2 Bft) 99,78 %
24.08.2019 20:00 24,3 C 24,3 C 24,8 C 52 % 0 cb 1018,1 hPa 0,0 l/m 0,0 km/h (0 Bft) N 0,00 h 0,076 mm 14 W/m 13,7 C 24,3 C 3,7 km/h (1 Bft) 100,00 %
24.08.2019 21:00 21,6 C 21,6 C 21,9 C 59 % 0 cb 1018,5 hPa 0,0 l/m 1,1 km/h (0 Bft) O-NO 0,00 h 0,025 mm 0 W/m 13,2 C 21,6 C 4,0 km/h (1 Bft) 100,00 %
24.08.2019 22:00 20,6 C 20,6 C 20,8 C 63 % 0 cb 1018,4 hPa 0,0 l/m 1,6 km/h (1 Bft) NO 0,00 h 0,051 mm 0 W/m 13,1 C 20,6 C 4,3 km/h (1 Bft) 100,00 %
24.08.2019 23:00 19,2 C 19,2 C 19,4 C 67 % 0 cb 1018,5 hPa 0,0 l/m 0,0 km/h (0 Bft) N 0,00 h 0,051 mm 0 W/m 13,0 C 19,2 C 0,0 km/h (0 Bft) 100,00 %
25.08.2019 00:00 18,1 C 18,1 C 18,3 C 70 % 0 cb 1018,4 hPa 0,0 l/m 0,0 km/h (0 Bft) N 0,00 h 0,025 mm 0 W/m 12,6 C 18,1 C 1,1 km/h (0 Bft) 100,00 %
25.08.2019 01:00 17,1 C 17,1 C 17,2 C 74 % 0 cb 1018,2 hPa 0,0 l/m 0,5 km/h (0 Bft) NO 0,00 h 0,025 mm 0 W/m 12,4 C 17,1 C 3,2 km/h (1 Bft) 100,00 %
25.08.2019 02:00 16,4 C 16,4 C 16,6 C 77 % 0 cb 1018,0 hPa 0,0 l/m 0,5 km/h (0 Bft) NO 0,00 h 0,025 mm 0 W/m 12,4 C 16,4 C 2,4 km/h (1 Bft) 100,00 %
25.08.2019 03:00 15,5 C 15,5 C 15,7 C 81 % 0 cb 1017,9 hPa 0,0 l/m 0,0 km/h (0 Bft) N 0,00 h 0,025 mm 0 W/m 12,3 C 15,5 C 2,1 km/h (1 Bft) 100,00 %
25.08.2019 04:00 14,8 C 14,8 C 14,9 C 85 % 0 cb 1017,7 hPa 0,0 l/m 0,0 km/h (0 Bft) N 0,00 h 0,025 mm 0 W/m 12,3 C 14,8 C 0,5 km/h (0 Bft) 100,00 %
25.08.2019 05:00 14,0 C 14,0 C 14,1 C 87 % 0 cb 1017,8 hPa 0,0 l/m 0,0 km/h (0 Bft) N 0,00 h 0,000 mm 0 W/m 11,9 C 14,0 C 0,0 km/h (0 Bft) 100,00 %
25.08.2019 06:00 13,5 C 13,5 C 13,6 C 90 % 0 cb 1018,1 hPa 0,0 l/m 0,0 km/h (0 Bft) N 0,00 h 0,000 mm 8 W/m 11,8 C 13,5 C 0,0 km/h (0 Bft) 100,00 %
25.08.2019 07:00 13,4 C 13,3 C 13,5 C 91 % 0 cb 1018,2 hPa 0,0 l/m 0,0 km/h (0 Bft) N 0,00 h 0,000 mm 38 W/m 12,1 C 13,4 C 0,3 km/h (0 Bft) 99,49 %
25.08.2019 08:00 16,4 C 15,5 C 16,4 C 86 % 0 cb 1018,4 hPa 0,0 l/m 0,3 km/h (0 Bft) O-NO 0,83 h 0,025 mm 214 W/m 14,0 C 16,4 C 1,9 km/h (1 Bft) 99,93 %
25.08.2019 09:00 21,6 C 20,9 C 21,6 C 73 % 0 cb 1018,5 hPa 0,0 l/m 0,0 km/h (0 Bft) N 1,00 h 0,127 mm 336 W/m 16,5 C 21,6 C 0,0 km/h (0 Bft) 100,00 %
25.08.2019 10:00 25,5 C 24,9 C 25,5 C 63 % 0 cb 1018,6 hPa 0,0 l/m 0,8 km/h (0 Bft) SO 1,00 h 0,203 mm 553 W/m 17,8 C 25,5 C 2,9 km/h (1 Bft) 99,93 %
25.08.2019 11:00 27,8 C 27,6 C 27,8 C 56 % 0 cb 1018,6 hPa 0,0 l/m 3,2 km/h (1 Bft) S-SO 1,00 h 0,356 mm 670 W/m 18,2 C 27,8 C 7,8 km/h (2 Bft) 100,00 %
25.08.2019 12:00 28,1 C 27,9 C 28,2 C 54 % 0 cb 1018,4 hPa 0,0 l/m 3,2 km/h (1 Bft) S 1,00 h 0,432 mm 805 W/m 17,7 C 28,1 C 9,4 km/h (2 Bft) 100,00 %
25.08.2019 13:00 29,2 C 29,0 C 29,3 C 51 % 0 cb 1018,0 hPa 0,0 l/m 3,5 km/h (1 Bft) N-NO 1,00 h 0,508 mm 851 W/m 17,9 C 29,2 C 12,6 km/h (3 Bft) 99,93 %
25.08.2019 14:00 29,1 C 28,9 C 29,2 C 50 % 0 cb 1017,8 hPa 0,0 l/m 3,2 km/h (1 Bft) W 1,00 h 0,508 mm 798 W/m 17,6 C 29,1 C 8,8 km/h (2 Bft) 100,00 %
25.08.2019 15:00 30,5 C 30,2 C 30,5 C 46 % 0 cb 1017,6 hPa 0,0 l/m 2,9 km/h (1 Bft) W 1,00 h 0,483 mm 736 W/m 17,4 C 30,5 C 8,6 km/h (2 Bft) 99,93 %
25.08.2019 16:00 30,4 C 30,3 C 30,6 C 46 % 0 cb 1017,3 hPa 0,0 l/m 3,5 km/h (1 Bft) NO 1,00 h 0,508 mm 578 W/m 17,5 C 30,4 C 9,4 km/h (2 Bft) 100,00 %
25.08.2019 17:00 30,7 C 30,5 C 30,7 C 45 % 0 cb 1017,1 hPa 0,0 l/m 2,7 km/h (1 Bft) W-SW 1,00 h 0,381 mm 411 W/m 17,3 C 30,7 C 8,3 km/h (2 Bft) 100,00 %
25.08.2019 18:00 30,7 C 30,7 C 30,8 C 44 % 0 cb 1017,1 hPa 0,0 l/m 2,4 km/h (1 Bft) W-SW 0,67 h 0,305 mm 195 W/m 16,9 C 30,7 C 7,0 km/h (2 Bft) 99,85 %
25.08.2019 19:00 28,0 C 28,0 C 28,6 C 52 % 0 cb 1017,5 hPa 0,0 l/m 2,1 km/h (1 Bft) W-SW 0,00 h 0,152 mm 57 W/m 17,2 C 28,0 C 6,4 km/h (2 Bft) 100,00 %
25.08.2019 20:00 25,4 C 25,4 C 25,8 C 61 % 0 cb 1017,7 hPa 0,0 l/m 0,8 km/h (0 Bft) W-SW 0,00 h 0,051 mm 12 W/m 17,2 C 25,4 C 3,7 km/h (1 Bft) 100,00 %
25.08.2019 21:00 23,6 C 23,6 C 23,8 C 66 % 0 cb 1018,1 hPa 0,0 l/m 1,6 km/h (1 Bft) W-SW 0,00 h 0,025 mm 0 W/m 16,8 C 23,6 C 5,1 km/h (1 Bft) 100,00 %
25.08.2019 22:00 22,4 C 22,4 C 22,7 C 68 % 0 cb 1018,3 hPa 0,0 l/m 1,1 km/h (0 Bft) W-SW 0,00 h 0,051 mm 0 W/m 16,2 C 22,4 C 3,2 km/h (1 Bft) 99,78 %
25.08.2019 23:00 21,2 C 21,2 C 21,3 C 71 % 0 cb 1018,4 hPa 0,0 l/m 0,3 km/h (0 Bft) W-SW 0,00 h 0,025 mm 0 W/m 15,8 C 21,2 C 4,0 km/h (1 Bft) 99,93 %
Min-Datum _ 21.08.19 21.08.19 21.08.19 23.08.19 19.08.19 19.08.19 - 19.08.19 - - - - 21.08.19 21.08.19 19.08.19 21.08.19
_ Min-Zeit 07:10 07:10 07:10 15:40 00:00 00:00 - 00:00 - - - - 07:00 07:10 02:00 09:50
Minimum _ 8,5 C 8,5 C 8,6 C 36 % 0 cb 1012,5 hPa - 0,0 km/h (0 Bft) - - - - 7,7 C 8,5 C 0,0 km/h (0 Bft) 88,60 %
Max-Datum _ 25.08.19 25.08.19 25.08.19 19.08.19 19.08.19 21.08.19 19.08.19 19.08.19 - 19.08.19 23.08.19 19.08.19 25.08.19 25.08.19 19.08.19 19.08.19
_ Max-Zeit 16:00 16:00 16:00 05:20 00:00 08:40 05:50 11:50 - 08:20 15:00 14:40 11:10 15:50 14:10 00:00
Maximum _ 31,2 C 31,0 C 31,2 C 97 % 0 cb 1028,6 hPa 0,4 l/m 8,0 km/h
W (2 Bft)
- 0,17 h 0,559 mm 956 W/m 18,9 C 31,0 C 22,5 km/h
SW (4 Bft)
100,00 %
Durchschnitt _ 19,0 C 18,8 C 19,1 C 66 % 0 cb 1022,0 hPa #0,4 l/m 2,4 km/h (1 Bft) N-NO #73:30 h #27,495 mm 396 W/m 11,9 C 19,0 C 7,4 km/h (2 Bft) 99,94 %
Wetterstation Gdesweiler